createdAt,value
2022-11-24T00:01:17.753Z,19.48
2022-11-24T00:03:47.290Z,23.02
2022-11-24T00:08:45.876Z,23.20
2022-11-24T00:11:16.973Z,31.60
2022-11-24T00:13:46.500Z,27.58
2022-11-24T00:18:47.545Z,26.98
2022-11-24T00:21:16.902Z,25.77
2022-11-24T00:23:45.263Z,25.88
2022-11-24T00:26:15.575Z,25.92
2022-11-24T00:28:44.983Z,24.13
2022-11-24T00:31:20.128Z,23.52
2022-11-24T00:33:49.740Z,25.98
2022-11-24T00:38:47.565Z,24.83
2022-11-24T00:41:15.627Z,20.03
2022-11-24T00:43:43.696Z,19.85
2022-11-24T00:46:12.534Z,18.92
2022-11-24T00:48:42.277Z,15.18
2022-11-24T00:51:13.113Z,20.08
2022-11-24T00:53:41.677Z,21.27
2022-11-24T00:56:11.117Z,18.70
2022-11-24T01:01:08.919Z,17.30
2022-11-24T01:03:37.108Z,14.98
2022-11-24T01:06:07.614Z,16.85
2022-11-24T01:08:37.559Z,21.40
2022-11-24T01:11:11.998Z,25.45
2022-11-24T01:13:41.046Z,41.35
2022-11-24T01:16:15.508Z,31.38
2022-11-24T01:18:43.716Z,34.20
2022-11-24T01:21:13.445Z,38.25
2022-11-24T01:23:41.821Z,32.50
2022-11-24T01:26:12.607Z,30.00
2022-11-24T01:28:46.358Z,34.00
2022-11-24T01:31:16.028Z,36.22
2022-11-24T01:33:44.288Z,27.45
2022-11-24T01:36:14.196Z,29.75
2022-11-24T01:38:42.740Z,27.35
2022-11-24T01:41:13.910Z,28.33
2022-11-24T01:43:43.225Z,27.60
2022-11-24T01:46:18.649Z,24.83
2022-11-24T01:48:50.089Z,26.10
2022-11-24T01:51:23.718Z,21.65
2022-11-24T01:53:55.811Z,23.92
2022-11-24T01:56:24.657Z,24.85
2022-11-24T01:58:56.257Z,19.50
2022-11-24T02:01:24.877Z,22.80
2022-11-24T02:03:53.980Z,20.48
2022-11-24T02:06:27.384Z,17.52
2022-11-24T02:08:59.779Z,17.08
2022-11-24T02:11:31.610Z,20.25
2022-11-24T02:14:00.554Z,19.00
2022-11-24T02:16:30.067Z,18.55
2022-11-24T02:21:28.556Z,19.45
2022-11-24T02:24:04.898Z,19.13
2022-11-24T02:26:42.766Z,18.13
2022-11-24T02:29:11.742Z,17.80
2022-11-24T02:31:41.493Z,21.77
2022-11-24T02:34:09.708Z,19.33
2022-11-24T02:36:37.986Z,18.65
2022-11-24T02:39:10.523Z,20.48
2022-11-24T02:41:43.308Z,19.52
2022-11-24T02:44:13.863Z,17.75
2022-11-24T02:46:41.980Z,16.77
2022-11-24T02:49:10.469Z,18.25
2022-11-24T02:51:38.541Z,20.60
2022-11-24T02:54:06.623Z,20.77
2022-11-24T02:56:34.621Z,18.05
2022-11-24T02:59:04.025Z,18.42
2022-11-24T03:01:32.103Z,18.00
2022-11-24T03:04:00.800Z,16.83
2022-11-24T03:06:28.846Z,21.52
2022-11-24T03:08:57.147Z,22.38
2022-11-24T03:11:25.544Z,21.38
2022-11-24T03:13:54.102Z,27.13
2022-11-24T03:16:23.794Z,19.73
2022-11-24T03:18:52.523Z,18.45
2022-11-24T03:21:20.809Z,19.25
2022-11-24T03:23:48.931Z,34.03
2022-11-24T03:26:19.488Z,32.72
2022-11-24T03:28:47.675Z,20.75
2022-11-24T03:31:16.194Z,29.15
2022-11-24T03:33:45.824Z,31.67
2022-11-24T03:38:41.735Z,24.45
2022-11-24T03:41:09.788Z,27.75
2022-11-24T03:43:43.209Z,25.30
2022-11-24T03:46:12.841Z,25.10
2022-11-24T03:48:41.418Z,19.73
2022-11-24T03:51:11.847Z,20.30
2022-11-24T03:53:39.934Z,22.55
2022-11-24T03:56:08.363Z,21.60
2022-11-24T03:58:36.437Z,18.35
2022-11-24T04:01:04.611Z,21.90
2022-11-24T04:03:32.662Z,23.08
2022-11-24T04:06:00.828Z,20.58
2022-11-24T04:08:30.295Z,19.48
2022-11-24T04:13:26.153Z,22.08
2022-11-24T04:15:54.507Z,28.48
2022-11-24T04:18:23.328Z,25.23
2022-11-24T04:20:52.825Z,26.48
2022-11-24T04:25:50.257Z,22.42
2022-11-24T04:30:46.360Z,22.63
2022-11-24T04:33:15.396Z,21.67
2022-11-24T04:35:43.456Z,19.25
2022-11-24T04:38:11.566Z,22.48
2022-11-24T04:40:39.614Z,21.63
2022-11-24T04:43:10.402Z,23.35
2022-11-24T04:45:38.940Z,21.52
2022-11-24T04:48:07.419Z,15.67
2022-11-24T04:50:35.526Z,13.85
2022-11-24T04:53:03.596Z,19.02
2022-11-24T04:55:31.718Z,20.70
2022-11-24T04:58:00.052Z,21.88
2022-11-24T05:00:29.534Z,22.60
2022-11-24T05:05:25.640Z,24.60
2022-11-24T05:07:53.779Z,17.90
2022-11-24T05:10:36.866Z,19.75
2022-11-24T05:13:06.558Z,21.55
2022-11-24T05:15:37.840Z,20.17
2022-11-24T05:18:06.984Z,31.58
2022-11-24T05:20:35.640Z,28.55
2022-11-24T05:23:04.879Z,24.63
2022-11-24T05:25:33.317Z,29.55
2022-11-24T05:28:02.448Z,25.83
2022-11-24T05:30:32.075Z,31.15
2022-11-24T05:33:06.658Z,30.52
2022-11-24T05:35:36.395Z,33.92
2022-11-24T05:38:05.649Z,33.47
2022-11-24T05:40:33.712Z,38.22
2022-11-24T05:43:01.848Z,36.00
2022-11-24T05:45:30.163Z,32.78
2022-11-24T05:48:07.543Z,31.52
2022-11-24T05:50:36.643Z,29.70
2022-11-24T05:53:04.864Z,27.92
2022-11-24T05:55:33.604Z,28.42
2022-11-24T05:58:03.087Z,28.45
2022-11-24T06:02:59.925Z,34.97
2022-11-24T06:05:30.383Z,25.98
2022-11-24T06:08:00.254Z,29.95
2022-11-24T06:10:29.366Z,26.13
2022-11-24T06:12:57.446Z,27.75
2022-11-24T06:15:25.498Z,30.85
2022-11-24T06:17:56.947Z,32.15
2022-11-24T06:20:31.172Z,36.05
2022-11-24T06:23:02.456Z,32.55
2022-11-24T06:25:30.887Z,32.30
2022-11-24T06:27:58.938Z,30.13
2022-11-24T06:30:27.169Z,30.05
2022-11-24T06:32:56.732Z,30.50
2022-11-24T06:37:52.586Z,32.33
2022-11-24T06:40:22.179Z,38.05
2022-11-24T06:45:21.598Z,38.30
2022-11-24T06:47:49.907Z,29.75
2022-11-24T06:50:18.373Z,33.10
2022-11-24T06:52:46.438Z,30.23
2022-11-24T06:55:15.196Z,30.02
2022-11-24T06:57:44.651Z,33.63
2022-11-24T07:00:13.698Z,31.10
2022-11-24T07:02:45.842Z,32.72
2022-11-24T07:05:14.457Z,36.58
2022-11-24T07:07:42.603Z,36.22
2022-11-24T07:10:11.223Z,33.78
2022-11-24T07:12:39.664Z,33.67
2022-11-24T07:15:10.440Z,31.58
2022-11-24T07:17:39.210Z,36.88
2022-11-24T07:20:08.724Z,33.47
2022-11-24T07:25:07.444Z,34.95
2022-11-24T07:27:35.730Z,36.25
2022-11-24T07:30:04.341Z,38.13
2022-11-24T07:32:34.002Z,29.80
2022-11-24T07:35:02.387Z,36.60
2022-11-24T07:37:31.730Z,35.05
2022-11-24T07:42:28.739Z,31.73
2022-11-24T07:44:56.815Z,31.65
2022-11-24T07:47:24.924Z,49.85
2022-11-24T07:49:54.517Z,50.45
2022-11-24T07:54:51.435Z,73.22
2022-11-24T07:57:19.808Z,55.53
2022-11-24T07:59:47.889Z,55.20
2022-11-24T08:02:15.988Z,65.30
2022-11-24T08:04:44.019Z,63.35
2022-11-24T08:07:13.527Z,61.20
2022-11-24T08:12:09.589Z,73.35
2022-11-24T08:14:37.676Z,84.90
2022-11-24T08:17:05.823Z,58.53
2022-11-24T08:19:34.818Z,57.97
2022-11-24T08:22:02.956Z,72.05
2022-11-24T08:24:32.547Z,42.53
2022-11-24T08:27:00.960Z,58.42
2022-11-24T08:29:29.842Z,29.00
2022-11-24T08:31:59.544Z,28.38
2022-11-24T08:34:27.715Z,21.92
2022-11-24T08:36:55.821Z,17.85
2022-11-24T08:39:23.998Z,21.17
2022-11-24T08:41:53.469Z,12.50
2022-11-24T08:44:21.593Z,16.30
2022-11-24T08:46:50.301Z,20.27
2022-11-24T08:49:18.966Z,13.37
2022-11-24T08:51:48.579Z,12.80
2022-11-24T08:56:47.105Z,15.43
2022-11-24T08:59:16.804Z,13.35
2022-11-24T09:01:45.066Z,6.93
2022-11-24T09:04:13.240Z,6.93
2022-11-24T09:06:41.347Z,9.23
2022-11-24T09:09:10.988Z,8.98
2022-11-24T09:14:07.750Z,6.97
2022-11-24T09:16:37.857Z,5.07
2022-11-24T09:19:07.995Z,7.38
2022-11-24T09:21:39.025Z,4.13
2022-11-24T09:24:08.413Z,9.00
2022-11-24T09:26:41.877Z,11.82
2022-11-24T09:29:14.257Z,5.20
2022-11-24T09:31:43.693Z,5.85
2022-11-24T09:34:15.122Z,10.25
2022-11-24T09:36:43.314Z,7.40
2022-11-24T09:39:12.139Z,5.20
2022-11-24T09:41:51.351Z,4.05
2022-11-24T09:44:40.332Z,5.20
2022-11-24T09:47:21.743Z,5.60
2022-11-24T09:49:55.617Z,4.18
2022-11-24T09:52:38.609Z,3.92
2022-11-24T09:55:20.575Z,3.53
2022-11-24T09:58:02.907Z,3.83
2022-11-24T10:00:31.407Z,4.55
2022-11-24T10:03:01.220Z,5.97
2022-11-24T10:05:33.836Z,6.55
2022-11-24T10:08:12.175Z,4.05
2022-11-24T10:10:51.381Z,3.55
2022-11-24T10:13:36.698Z,3.72
2022-11-24T10:16:13.730Z,2.65
2022-11-24T10:18:58.416Z,4.63
2022-11-24T10:21:45.976Z,3.33
2022-11-24T10:24:30.264Z,5.80
2022-11-24T10:27:02.977Z,5.95
2022-11-24T10:29:35.683Z,3.35
2022-11-24T10:32:08.956Z,4.32
2022-11-24T10:34:42.713Z,3.60
2022-11-24T10:37:17.987Z,4.63
2022-11-24T10:39:59.847Z,4.90
2022-11-24T10:42:30.536Z,5.03
2022-11-24T10:45:02.414Z,2.42
2022-11-24T10:47:31.745Z,7.68
2022-11-24T10:50:04.351Z,7.60
2022-11-24T10:52:41.484Z,5.95
2022-11-24T10:55:10.341Z,8.18
2022-11-24T10:57:39.760Z,7.60
2022-11-24T11:00:32.819Z,4.10
2022-11-24T11:03:18.964Z,5.90
2022-11-24T11:05:53.155Z,7.30
2022-11-24T11:08:24.489Z,9.38
2022-11-24T11:11:12.877Z,4.63
2022-11-24T11:13:52.062Z,19.25
2022-11-24T11:16:32.201Z,13.18
2022-11-24T11:19:15.689Z,14.10
2022-11-24T11:22:01.247Z,10.52
2022-11-24T11:24:30.068Z,7.90
2022-11-24T11:27:01.999Z,11.13
2022-11-24T11:35:14.085Z,8.27
2022-11-24T11:37:45.335Z,6.78
2022-11-24T11:40:18.411Z,10.20
2022-11-24T11:43:05.758Z,10.40
2022-11-24T11:45:37.362Z,9.57
2022-11-24T11:48:26.375Z,6.70
2022-11-24T11:53:55.467Z,12.10
2022-11-24T11:56:27.053Z,8.65
2022-11-24T11:59:36.612Z,10.25
2022-11-24T12:02:49.955Z,11.95
2022-11-24T12:05:30.985Z,9.68
2022-11-24T12:08:15.993Z,7.78
2022-11-24T12:10:55.461Z,11.40
2022-11-24T12:13:49.418Z,11.15
2022-11-24T12:16:31.121Z,10.15
2022-11-24T12:19:16.751Z,9.77
2022-11-24T12:21:51.448Z,10.27
2022-11-24T12:24:25.146Z,9.45
2022-11-24T12:26:59.833Z,9.55
2022-11-24T12:29:48.263Z,12.68
2022-11-24T12:32:30.642Z,9.13
2022-11-24T12:35:04.589Z,10.07
2022-11-24T12:37:46.327Z,6.85
2022-11-24T12:40:18.470Z,8.00
2022-11-24T12:43:00.845Z,8.18
2022-11-24T12:45:35.265Z,9.15
2022-11-24T12:48:22.393Z,8.90
2022-11-24T12:50:53.348Z,9.52
2022-11-24T12:53:25.542Z,10.05
2022-11-24T12:55:55.888Z,7.35
2022-11-24T12:58:31.305Z,6.22
2022-11-24T13:01:16.137Z,9.80
2022-11-24T13:03:56.086Z,10.98
2022-11-24T13:08:53.426Z,6.68
2022-11-24T13:11:43.619Z,8.45
2022-11-24T13:14:19.374Z,9.48
2022-11-24T13:17:31.069Z,8.57
2022-11-24T13:20:22.949Z,14.90
2022-11-24T13:22:53.865Z,13.85
2022-11-24T13:25:24.425Z,6.05
2022-11-24T13:27:55.420Z,10.25
2022-11-24T13:30:59.797Z,7.03
2022-11-24T13:33:37.070Z,6.47
2022-11-24T13:36:33.846Z,7.82
2022-11-24T13:39:03.937Z,6.53
2022-11-24T13:42:43.047Z,4.75
2022-11-24T13:45:00.160Z,6.80
2022-11-24T13:47:37.339Z,8.02
2022-11-24T13:50:10.000Z,5.88
2022-11-24T13:52:43.032Z,6.63
2022-11-24T13:55:34.818Z,5.93
2022-11-24T13:58:25.500Z,5.80
2022-11-24T14:01:15.679Z,5.50
2022-11-24T14:07:07.024Z,6.38
2022-11-24T14:09:40.922Z,8.98
2022-11-24T14:12:15.259Z,7.50
2022-11-24T14:14:45.487Z,7.65
2022-11-24T14:17:19.449Z,6.38
2022-11-24T14:19:49.390Z,6.50
2022-11-24T14:22:21.911Z,10.68
2022-11-24T14:24:55.619Z,7.55
2022-11-24T14:27:30.403Z,7.18
2022-11-24T14:30:01.224Z,6.50
2022-11-24T14:32:29.399Z,5.15
2022-11-24T14:34:57.880Z,9.60
2022-11-24T14:37:27.519Z,45.63
2022-11-24T14:42:27.333Z,20.95
2022-11-24T14:44:58.783Z,14.77
2022-11-24T14:47:31.615Z,14.45
2022-11-24T14:50:10.692Z,14.63
2022-11-24T14:52:47.090Z,11.73
2022-11-24T14:55:29.030Z,14.57
2022-11-24T14:57:57.680Z,17.23
2022-11-24T15:00:31.732Z,10.70
2022-11-24T15:03:16.040Z,18.30
2022-11-24T15:05:55.869Z,18.75
2022-11-24T15:08:26.784Z,16.02
2022-11-24T15:11:01.117Z,15.90
2022-11-24T15:13:32.086Z,16.05
2022-11-24T15:16:03.724Z,17.08
2022-11-24T15:18:38.537Z,14.57
2022-11-24T15:21:07.197Z,10.93
2022-11-24T15:23:37.621Z,9.65
2022-11-24T15:26:31.269Z,11.60
2022-11-24T15:29:01.336Z,13.02
2022-11-24T15:31:29.817Z,10.77
2022-11-24T15:33:57.945Z,14.00
2022-11-24T15:36:25.987Z,15.63
2022-11-24T15:38:55.461Z,25.10
2022-11-24T15:41:27.799Z,22.67
2022-11-24T15:43:59.222Z,19.20
2022-11-24T15:46:27.926Z,17.75
2022-11-24T15:48:57.192Z,13.35
2022-11-24T15:51:27.106Z,14.15
2022-11-24T15:54:01.069Z,10.88
2022-11-24T15:56:33.094Z,7.93
2022-11-24T15:59:01.484Z,13.15
2022-11-24T16:01:33.313Z,10.50
2022-11-24T16:04:01.503Z,11.65
2022-11-24T16:06:29.741Z,14.60
2022-11-24T16:08:59.576Z,11.27
2022-11-24T16:11:27.936Z,14.88
2022-11-24T16:13:56.120Z,19.10
2022-11-24T16:16:25.688Z,14.68
2022-11-24T16:21:23.175Z,19.05
2022-11-24T16:26:22.360Z,16.85
2022-11-24T16:28:50.431Z,15.10
2022-11-24T16:31:19.703Z,13.82
2022-11-24T16:33:48.073Z,14.70
2022-11-24T16:36:16.409Z,15.50
2022-11-24T16:38:45.242Z,17.92
2022-11-24T16:41:13.483Z,15.13
2022-11-24T16:43:43.896Z,16.75
2022-11-24T16:46:20.234Z,19.38
2022-11-24T16:48:50.243Z,10.32
2022-11-24T16:51:20.352Z,12.73
2022-11-24T16:53:48.547Z,9.20
2022-11-24T16:56:17.431Z,11.15
2022-11-24T16:58:47.006Z,10.20
2022-11-24T17:03:43.300Z,16.73
2022-11-24T17:06:15.653Z,15.63
2022-11-24T17:08:44.690Z,25.88
2022-11-24T17:11:14.533Z,17.85
2022-11-24T17:13:43.355Z,16.58
2022-11-24T17:16:14.715Z,15.88
2022-11-24T17:18:43.126Z,11.85
2022-11-24T17:21:13.740Z,14.93
2022-11-24T17:23:42.128Z,13.07
2022-11-24T17:26:12.942Z,12.70
2022-11-24T17:28:41.680Z,16.92
2022-11-24T17:31:17.641Z,16.20
2022-11-24T17:33:45.866Z,15.52
2022-11-24T17:36:14.109Z,15.63
2022-11-24T17:38:42.305Z,16.45
2022-11-24T17:41:10.579Z,16.00
2022-11-24T17:43:38.940Z,13.23
2022-11-24T17:46:07.624Z,16.70
2022-11-24T17:48:37.609Z,14.82
2022-11-24T17:51:08.308Z,21.55
2022-11-24T17:53:39.072Z,16.77
2022-11-24T17:56:08.147Z,15.85
2022-11-24T17:58:42.567Z,18.77
2022-11-24T18:01:11.717Z,26.77
2022-11-24T18:03:41.970Z,23.88
2022-11-24T18:06:11.915Z,22.85
2022-11-24T18:08:41.455Z,14.52
2022-11-24T18:13:56.502Z,15.73
2022-11-24T18:16:28.077Z,14.52
2022-11-24T18:19:07.924Z,11.20
2022-11-24T18:21:38.163Z,12.10
2022-11-24T18:26:34.393Z,9.57
2022-11-24T18:29:02.773Z,10.98
2022-11-24T18:31:31.242Z,8.73
2022-11-24T18:34:02.681Z,11.80
2022-11-24T18:36:31.046Z,14.15
2022-11-24T18:39:00.991Z,12.40
2022-11-24T18:41:29.149Z,10.90
2022-11-24T18:43:57.268Z,9.80
2022-11-24T18:46:25.898Z,8.15
2022-11-24T18:48:54.134Z,7.13
2022-11-24T18:51:23.640Z,8.73
2022-11-24T18:56:21.571Z,6.30
2022-11-24T18:58:52.910Z,9.48
2022-11-24T19:01:22.988Z,9.43
2022-11-24T19:03:52.504Z,4.93
2022-11-24T19:08:53.475Z,4.47
2022-11-24T19:11:23.668Z,3.55
2022-11-24T19:13:52.208Z,4.05
2022-11-24T19:16:21.661Z,5.63
2022-11-24T19:18:54.103Z,3.30
2022-11-24T19:21:23.749Z,2.83
2022-11-24T19:23:53.263Z,4.13
2022-11-24T19:26:21.427Z,7.65
2022-11-24T19:28:49.622Z,7.50
2022-11-24T19:31:19.656Z,6.60
2022-11-24T19:33:48.495Z,5.13
2022-11-24T19:36:18.272Z,8.38
2022-11-24T19:38:53.922Z,13.40
2022-11-24T19:41:24.597Z,9.50
2022-11-24T19:43:53.418Z,6.15
2022-11-24T19:46:23.169Z,5.68
2022-11-24T19:48:54.208Z,5.80
2022-11-24T19:51:23.952Z,10.88
2022-11-24T19:53:54.115Z,12.55
2022-11-24T19:56:24.620Z,7.18
2022-11-24T19:58:54.595Z,6.10
2022-11-24T20:01:25.176Z,5.13
2022-11-24T20:03:58.784Z,7.07
2022-11-24T20:06:28.287Z,5.15
2022-11-24T20:11:26.633Z,6.25
2022-11-24T20:13:54.728Z,6.63
2022-11-24T20:16:26.549Z,11.95
2022-11-24T20:18:56.560Z,9.02
2022-11-24T20:21:28.597Z,6.30
2022-11-24T20:24:01.175Z,3.85
2022-11-24T20:26:31.533Z,3.80
2022-11-24T20:29:01.252Z,2.95
2022-11-24T20:31:31.819Z,2.72
2022-11-24T20:34:00.885Z,3.75
2022-11-24T20:36:31.123Z,3.97
2022-11-24T20:39:03.013Z,3.17
2022-11-24T20:41:33.676Z,5.70
2022-11-24T20:44:04.981Z,2.80
2022-11-24T20:46:35.386Z,4.00
2022-11-24T20:49:04.512Z,7.18
2022-11-24T20:51:34.682Z,6.40
2022-11-24T20:54:07.894Z,7.75
2022-11-24T20:56:39.806Z,7.22
2022-11-24T20:59:08.383Z,8.98
2022-11-24T21:01:38.863Z,8.13
2022-11-24T21:04:08.760Z,5.07
2022-11-24T21:06:37.639Z,3.33
2022-11-24T21:09:08.658Z,5.45
2022-11-24T21:11:37.252Z,4.20
2022-11-24T21:14:06.002Z,2.17
2022-11-24T21:16:35.707Z,4.20
2022-11-24T21:19:06.430Z,3.80
2022-11-24T21:21:36.201Z,6.65
2022-11-24T21:24:07.427Z,2.97
2022-11-24T21:26:37.754Z,4.57
2022-11-24T21:29:06.851Z,2.88
2022-11-24T21:31:36.530Z,2.78
2022-11-24T21:34:05.401Z,3.15
2022-11-24T21:36:35.031Z,3.42
2022-11-24T21:39:04.428Z,2.28
2022-11-24T21:41:35.117Z,4.40
2022-11-24T21:44:04.381Z,4.00
2022-11-24T21:46:40.470Z,5.78
2022-11-24T21:49:10.534Z,6.15
2022-11-24T21:51:38.623Z,4.88
2022-11-24T21:54:07.347Z,2.90
2022-11-24T21:56:36.801Z,4.63
2022-11-24T21:59:05.317Z,2.38
2022-11-24T22:01:33.476Z,4.05
2022-11-24T22:04:01.618Z,6.00
2022-11-24T22:06:34.264Z,4.20
2022-11-24T22:09:02.355Z,4.22
2022-11-24T22:11:30.875Z,3.13
2022-11-24T22:14:00.259Z,3.90
2022-11-24T22:16:28.909Z,5.32
2022-11-24T22:18:56.996Z,3.33
2022-11-24T22:21:30.029Z,5.95
2022-11-24T22:23:58.623Z,6.40
2022-11-24T22:26:28.139Z,4.38
2022-11-24T22:28:57.298Z,3.47
2022-11-24T22:31:29.800Z,6.32
2022-11-24T22:33:59.153Z,4.90
2022-11-24T22:36:28.541Z,3.75
2022-11-24T22:38:57.653Z,2.88
2022-11-24T22:41:26.633Z,7.05
2022-11-24T22:43:55.035Z,4.18
2022-11-24T22:46:25.128Z,4.15
2022-11-24T22:48:55.836Z,6.15
2022-11-24T22:51:27.551Z,5.15
2022-11-24T22:53:57.513Z,7.18
2022-11-24T22:56:27.830Z,7.10
2022-11-24T22:58:56.725Z,6.38
2022-11-24T23:01:26.707Z,9.15
2022-11-24T23:03:56.619Z,8.25
2022-11-24T23:06:28.772Z,8.32
2022-11-24T23:08:58.083Z,9.70
2022-11-24T23:11:34.964Z,9.70
2022-11-24T23:14:06.567Z,6.32
2022-11-24T23:16:34.822Z,4.57
2022-11-24T23:19:04.508Z,6.78
2022-11-24T23:21:34.095Z,13.25
2022-11-24T23:26:32.602Z,16.30
2022-11-24T23:29:00.781Z,17.70
2022-11-24T23:31:29.603Z,19.67
2022-11-24T23:33:58.976Z,21.33
2022-11-24T23:36:29.080Z,17.17
2022-11-24T23:38:57.483Z,14.95
2022-11-24T23:41:26.723Z,9.50
2022-11-24T23:43:54.786Z,7.53
2022-11-24T23:46:25.183Z,5.30
2022-11-24T23:48:54.872Z,8.65
2022-11-24T23:51:24.769Z,7.57
2022-11-24T23:53:54.970Z,8.55
2022-11-24T23:56:25.011Z,4.72
2022-11-24T23:58:53.471Z,5.50
